createdAt,value
2019-02-10T00:00:32.254Z,92.56
2019-02-10T00:01:32.191Z,92.65
2019-02-10T00:02:32.178Z,92.46
2019-02-10T00:03:32.145Z,92.75
2019-02-10T00:04:53.115Z,92.56
2019-02-10T00:05:32.093Z,92.65
2019-02-10T00:06:32.067Z,92.36
2019-02-10T00:07:32.051Z,92.56
2019-02-10T00:08:32.016Z,92.46
2019-02-10T00:09:31.992Z,92.46
2019-02-10T00:10:52.993Z,92.75
2019-02-10T00:11:31.962Z,92.75
2019-02-10T00:12:31.916Z,92.56
2019-02-10T00:13:31.918Z,92.46
2019-02-10T00:14:31.866Z,92.56
2019-02-10T00:15:31.841Z,92.46
2019-02-10T00:16:52.823Z,92.36
2019-02-10T00:17:31.795Z,92.56
2019-02-10T00:18:31.804Z,92.46
2019-02-10T00:19:31.774Z,92.46
2019-02-10T00:20:31.718Z,92.56
2019-02-10T00:21:31.694Z,92.65
2019-02-10T00:22:52.666Z,92.75
2019-02-10T00:23:31.645Z,92.46
2019-02-10T00:24:31.618Z,92.65
2019-02-10T00:25:31.592Z,92.94
2019-02-10T00:26:31.570Z,92.18
2019-02-10T00:27:31.541Z,92.94
2019-02-10T00:28:52.519Z,92.75
2019-02-10T00:29:31.495Z,92.75
2019-02-10T00:30:31.468Z,92.84
2019-02-10T00:31:31.452Z,92.75
2019-02-10T00:32:31.428Z,92.75
2019-02-10T00:33:31.392Z,92.65
2019-02-10T00:34:52.367Z,92.46
2019-02-10T00:35:31.344Z,92.94
2019-02-10T00:36:33.310Z,92.94
2019-02-10T00:37:31.292Z,92.94
2019-02-10T00:38:31.268Z,92.84
2019-02-10T00:39:31.244Z,92.84
2019-02-10T00:40:52.220Z,92.56
2019-02-10T00:41:31.193Z,92.84
2019-02-10T00:42:31.169Z,92.65
2019-02-10T00:43:31.143Z,92.84
2019-02-10T00:44:31.120Z,93.04
2019-02-10T00:45:31.094Z,92.94
2019-02-10T00:46:52.086Z,92.56
2019-02-10T00:47:31.045Z,92.75
2019-02-10T00:48:31.018Z,93.32
2019-02-10T00:49:30.993Z,93.13
2019-02-10T00:50:30.969Z,93.13
2019-02-10T00:51:30.943Z,93.13
2019-02-10T00:52:51.918Z,93.13
2019-02-10T00:53:30.914Z,93.13
2019-02-10T00:54:30.870Z,93.23
2019-02-10T00:55:30.877Z,93.13
2019-02-10T00:56:30.821Z,93.13
2019-02-10T00:57:30.794Z,93.04
2019-02-10T00:58:51.788Z,93.51
2019-02-10T00:59:30.899Z,93.60
2019-02-10T01:00:30.723Z,93.75
2019-02-10T01:01:30.695Z,93.60
2019-02-10T01:02:30.671Z,93.60
2019-02-10T01:03:30.644Z,93.51
2019-02-10T01:04:51.622Z,93.32
2019-02-10T01:05:30.594Z,93.55
2019-02-10T01:06:30.574Z,93.70
2019-02-10T01:07:30.548Z,93.51
2019-02-10T01:08:30.524Z,93.98
2019-02-10T01:09:30.498Z,93.89
2019-02-10T01:10:51.561Z,94.03
2019-02-10T01:11:30.445Z,93.65
2019-02-10T01:12:30.421Z,94.32
2019-02-10T01:13:30.395Z,94.03
2019-02-10T01:14:30.378Z,94.13
2019-02-10T01:15:30.353Z,94.22
2019-02-10T01:16:51.324Z,94.22
2019-02-10T01:17:30.297Z,94.32
2019-02-10T01:18:30.271Z,94.32
2019-02-10T01:19:30.251Z,94.51
2019-02-10T01:20:30.224Z,94.51
2019-02-10T01:21:30.200Z,94.08
2019-02-10T01:22:51.171Z,94.03
2019-02-10T01:23:30.147Z,94.22
2019-02-10T01:24:30.123Z,94.46
2019-02-10T01:25:30.097Z,94.18
2019-02-10T01:26:30.072Z,94.18
2019-02-10T01:27:30.047Z,94.18
2019-02-10T01:28:51.025Z,94.27
2019-02-10T01:29:29.997Z,94.74
2019-02-10T01:30:29.977Z,94.56
2019-02-10T01:31:29.975Z,95.12
2019-02-10T01:32:29.934Z,95.03
2019-02-10T01:33:29.901Z,95.79
2019-02-10T01:34:50.877Z,95.60
2019-02-10T01:35:29.847Z,96.12
2019-02-10T01:36:29.927Z,96.31
2019-02-10T01:37:29.799Z,96.89
2019-02-10T01:38:29.808Z,96.22
2019-02-10T01:39:29.747Z,96.84
2019-02-10T01:40:50.857Z,96.89
2019-02-10T01:41:29.697Z,96.50
2019-02-10T01:42:29.758Z,96.79
2019-02-10T01:43:29.648Z,96.31
2019-02-10T01:44:29.624Z,96.41
2019-02-10T01:45:29.601Z,96.79
2019-02-10T01:46:50.578Z,96.50
2019-02-10T01:47:29.561Z,96.69
2019-02-10T01:48:29.524Z,96.69
2019-02-10T01:49:29.499Z,96.12
2019-02-10T01:50:29.475Z,96.12
2019-02-10T01:51:29.448Z,96.31
2019-02-10T01:52:50.456Z,96.60
2019-02-10T01:53:29.400Z,96.12
2019-02-10T01:54:29.379Z,95.65
2019-02-10T01:55:29.419Z,96.12
2019-02-10T01:56:29.395Z,96.22
2019-02-10T01:57:29.301Z,96.12
2019-02-10T01:58:50.487Z,96.12
2019-02-10T01:59:29.249Z,95.94
2019-02-10T02:00:29.224Z,95.94
2019-02-10T02:01:29.198Z,96.50
2019-02-10T02:02:29.193Z,96.12
2019-02-10T02:03:29.149Z,96.03
2019-02-10T02:04:50.125Z,96.31
2019-02-10T02:05:29.116Z,96.50
2019-02-10T02:06:29.077Z,96.12
2019-02-10T02:07:29.051Z,96.12
2019-02-10T02:08:29.029Z,96.41
2019-02-10T02:09:29.002Z,96.03
2019-02-10T02:10:50.015Z,96.22
2019-02-10T02:11:28.951Z,96.41
2019-02-10T02:12:28.925Z,96.50
2019-02-10T02:13:28.905Z,96.31
2019-02-10T02:14:28.877Z,96.41
2019-02-10T02:15:28.851Z,96.89
2019-02-10T02:16:49.832Z,96.79
2019-02-10T02:17:28.802Z,96.79
2019-02-10T02:18:28.777Z,97.08
2019-02-10T02:19:28.753Z,96.79
2019-02-10T02:20:28.730Z,96.50
2019-02-10T02:21:28.718Z,96.50
2019-02-10T02:22:49.679Z,96.84
2019-02-10T02:23:28.653Z,96.55
2019-02-10T02:24:28.630Z,96.79
2019-02-10T02:25:28.603Z,96.36
2019-02-10T02:26:28.579Z,96.69
2019-02-10T02:27:28.553Z,96.65
2019-02-10T02:28:49.526Z,96.55
2019-02-10T02:29:28.504Z,96.84
2019-02-10T02:30:28.500Z,97.55
2019-02-10T02:31:28.454Z,97.45
2019-02-10T02:32:28.429Z,97.13
2019-02-10T02:33:28.407Z,97.27
2019-02-10T02:34:49.379Z,97.17
2019-02-10T02:35:28.355Z,97.55
2019-02-10T02:36:28.329Z,96.94
2019-02-10T02:37:28.308Z,96.89
2019-02-10T02:38:28.280Z,97.27
2019-02-10T02:39:28.267Z,97.31
2019-02-10T02:40:49.228Z,97.93
2019-02-10T02:41:28.213Z,97.36
2019-02-10T02:42:28.187Z,97.83
2019-02-10T02:43:28.161Z,97.93
2019-02-10T02:44:28.203Z,97.74
2019-02-10T02:45:28.106Z,98.31
2019-02-10T02:46:49.080Z,98.22
2019-02-10T02:47:28.059Z,98.88
2019-02-10T02:48:28.030Z,98.50
2019-02-10T02:49:28.008Z,98.31
2019-02-10T02:50:27.989Z,98.79
2019-02-10T02:51:27.961Z,99.36
2019-02-10T02:52:48.945Z,99.26
2019-02-10T02:53:27.908Z,98.97
2019-02-10T02:54:27.883Z,99.45
2019-02-10T02:55:27.857Z,99.55
2019-02-10T02:56:27.835Z,99.74
2019-02-10T02:57:27.807Z,99.84
2019-02-10T02:58:48.782Z,99.99
2019-02-10T02:59:27.758Z,99.99
2019-02-10T03:00:27.732Z,99.99
2019-02-10T03:01:27.707Z,99.99
2019-02-10T03:02:27.683Z,99.99
2019-02-10T03:03:27.657Z,99.99
2019-02-10T03:04:48.631Z,99.99
2019-02-10T03:05:27.607Z,99.99
2019-02-10T03:06:27.582Z,99.99
2019-02-10T03:07:27.555Z,99.99
2019-02-10T03:08:27.533Z,99.99
2019-02-10T03:09:27.572Z,99.99
2019-02-10T03:10:48.482Z,99.99
2019-02-10T03:11:27.458Z,99.99
2019-02-10T03:12:27.434Z,99.99
2019-02-10T03:13:27.407Z,99.99
2019-02-10T03:14:27.385Z,99.99
2019-02-10T03:15:27.356Z,99.99
2019-02-10T03:16:48.329Z,99.99
2019-02-10T03:17:27.308Z,99.99
2019-02-10T03:18:27.281Z,99.99
2019-02-10T03:19:27.255Z,99.99
2019-02-10T03:20:27.236Z,99.99
2019-02-10T03:21:27.205Z,99.99
2019-02-10T03:22:48.182Z,99.99
2019-02-10T03:23:27.156Z,99.99
2019-02-10T03:24:27.130Z,99.99
2019-02-10T03:25:27.151Z,99.99
2019-02-10T03:26:27.083Z,99.99
2019-02-10T03:27:27.056Z,99.99
2019-02-10T03:28:48.039Z,99.99
2019-02-10T03:29:27.005Z,99.99
2019-02-10T03:30:26.981Z,99.99
2019-02-10T03:31:26.985Z,99.99
2019-02-10T03:32:26.932Z,99.99
2019-02-10T03:33:26.910Z,99.99
2019-02-10T03:34:47.884Z,99.99
2019-02-10T03:35:26.862Z,99.99
2019-02-10T03:36:26.828Z,99.99
2019-02-10T03:37:27.542Z,99.99
2019-02-10T03:38:26.783Z,99.99
2019-02-10T03:39:26.763Z,99.99
2019-02-10T03:40:47.730Z,99.99
2019-02-10T03:41:26.706Z,99.99
2019-02-10T03:42:26.684Z,99.99
2019-02-10T03:43:26.654Z,99.99
2019-02-10T03:44:26.631Z,99.99
2019-02-10T03:45:26.606Z,99.99
2019-02-10T03:46:47.580Z,99.99
2019-02-10T03:47:26.556Z,99.99
2019-02-10T03:48:26.534Z,99.99
2019-02-10T03:49:26.507Z,99.99
2019-02-10T03:50:26.482Z,99.99
2019-02-10T03:51:26.457Z,99.99
2019-02-10T03:52:47.433Z,99.99
2019-02-10T03:53:26.407Z,99.99
2019-02-10T03:54:26.386Z,99.99
2019-02-10T03:55:26.356Z,99.99
2019-02-10T03:56:26.387Z,99.99
2019-02-10T03:57:26.309Z,99.99
2019-02-10T03:58:47.284Z,99.99
2019-02-10T03:59:26.258Z,99.99
2019-02-10T04:00:26.238Z,99.99
2019-02-10T04:01:26.211Z,99.99
2019-02-10T04:02:26.237Z,99.99
2019-02-10T04:03:26.161Z,99.99
2019-02-10T04:04:47.134Z,99.99
2019-02-10T04:05:26.110Z,99.99
2019-02-10T04:06:26.086Z,99.99
2019-02-10T04:07:26.074Z,99.99
2019-02-10T04:08:26.035Z,99.99
2019-02-10T04:09:26.010Z,99.99
2019-02-10T04:10:46.986Z,99.99
2019-02-10T04:11:25.962Z,99.99
2019-02-10T04:12:25.936Z,99.99
2019-02-10T04:13:25.911Z,99.99
2019-02-10T04:14:25.889Z,99.99
2019-02-10T04:15:25.863Z,99.99
2019-02-10T04:16:46.836Z,99.99
2019-02-10T04:17:25.814Z,99.99
2019-02-10T04:18:25.792Z,99.99
2019-02-10T04:19:25.764Z,99.99
2019-02-10T04:20:25.740Z,99.99
2019-02-10T04:21:25.714Z,99.99
2019-02-10T04:22:46.690Z,99.99
2019-02-10T04:23:25.668Z,99.99
2019-02-10T04:24:25.640Z,99.99
2019-02-10T04:25:25.629Z,99.99
2019-02-10T04:26:25.591Z,99.99
2019-02-10T04:27:25.565Z,99.99
2019-02-10T04:28:46.548Z,99.99
2019-02-10T04:29:25.515Z,99.99
2019-02-10T04:30:25.492Z,99.99
2019-02-10T04:31:25.468Z,99.99
2019-02-10T04:32:25.439Z,99.99
2019-02-10T04:33:25.446Z,99.99
2019-02-10T04:34:46.390Z,99.99
2019-02-10T04:35:25.364Z,99.99
2019-02-10T04:36:25.339Z,99.99
2019-02-10T04:37:25.314Z,99.99
2019-02-10T04:38:25.288Z,99.99
2019-02-10T04:39:25.263Z,99.99
2019-02-10T04:40:46.237Z,99.99
2019-02-10T04:41:25.213Z,99.99
2019-02-10T04:42:25.191Z,99.99
2019-02-10T04:43:25.162Z,99.99
2019-02-10T04:44:25.137Z,99.99
2019-02-10T04:45:25.111Z,99.99
2019-02-10T04:46:46.087Z,99.99
2019-02-10T04:47:25.063Z,99.99
2019-02-10T04:48:25.038Z,99.99
2019-02-10T04:49:25.010Z,99.99
2019-02-10T04:50:24.987Z,99.99
2019-02-10T04:51:24.960Z,99.99
2019-02-10T04:52:45.935Z,99.99
2019-02-10T04:53:24.912Z,99.99
2019-02-10T04:54:24.888Z,99.99
2019-02-10T04:55:24.862Z,99.99
2019-02-10T04:56:24.836Z,99.99
2019-02-10T04:57:24.814Z,99.99
2019-02-10T04:58:45.783Z,99.99
2019-02-10T04:59:24.773Z,99.99
2019-02-10T05:00:24.735Z,99.99
2019-02-10T05:01:24.709Z,99.99
2019-02-10T05:02:24.685Z,99.99
2019-02-10T05:03:24.661Z,99.99
2019-02-10T05:04:45.634Z,99.99
2019-02-10T05:05:24.610Z,99.99
2019-02-10T05:06:24.586Z,99.99
2019-02-10T05:07:24.560Z,99.99
2019-02-10T05:08:24.535Z,99.99
2019-02-10T05:09:24.572Z,99.99
2019-02-10T05:10:45.486Z,99.99
2019-02-10T05:11:24.464Z,99.99
2019-02-10T05:12:24.437Z,99.99
2019-02-10T05:13:24.418Z,99.99
2019-02-10T05:14:24.388Z,99.99
2019-02-10T05:15:24.361Z,99.99
2019-02-10T05:16:45.337Z,99.99
2019-02-10T05:17:24.311Z,99.99
2019-02-10T05:18:24.289Z,99.99
2019-02-10T05:19:24.263Z,99.99
2019-02-10T05:20:24.236Z,99.99
2019-02-10T05:21:24.219Z,99.99
2019-02-10T05:22:45.187Z,99.99
2019-02-10T05:23:24.161Z,99.99
2019-02-10T05:24:24.137Z,99.99
2019-02-10T05:25:24.113Z,99.99
2019-02-10T05:26:24.089Z,99.99
2019-02-10T05:27:24.062Z,99.99
2019-02-10T05:28:45.038Z,99.99
2019-02-10T05:29:24.014Z,99.99
2019-02-10T05:30:24.015Z,99.99
2019-02-10T05:31:23.965Z,99.99
2019-02-10T05:32:23.974Z,99.99
2019-02-10T05:33:23.915Z,99.99
2019-02-10T05:34:44.901Z,99.99
2019-02-10T05:35:23.863Z,99.99
2019-02-10T05:36:23.839Z,99.99
2019-02-10T05:37:23.813Z,99.99
2019-02-10T05:38:23.796Z,99.99
2019-02-10T05:39:23.765Z,99.99
2019-02-10T05:40:44.741Z,99.99
2019-02-10T05:41:23.720Z,99.99
2019-02-10T05:42:23.691Z,99.99
2019-02-10T05:43:23.667Z,99.99
2019-02-10T05:44:23.638Z,99.99
2019-02-10T05:45:23.623Z,99.99
2019-02-10T05:46:44.590Z,99.99
2019-02-10T05:47:23.564Z,99.99
2019-02-10T05:48:23.540Z,99.99
2019-02-10T05:49:23.514Z,99.99
2019-02-10T05:50:23.490Z,99.99
2019-02-10T05:51:23.463Z,99.99
2019-02-10T05:52:44.440Z,99.99
2019-02-10T05:53:23.423Z,99.99
2019-02-10T05:54:23.394Z,99.99
2019-02-10T05:55:23.365Z,99.99
2019-02-10T05:56:23.344Z,99.99
2019-02-10T05:57:23.313Z,99.99
2019-02-10T05:58:44.290Z,99.99
2019-02-10T05:59:23.263Z,99.99
2019-02-10T06:00:23.240Z,99.99
2019-02-10T06:01:23.220Z,99.99
2019-02-10T06:02:23.190Z,99.99
2019-02-10T06:03:23.167Z,99.99
2019-02-10T06:04:44.141Z,99.99
2019-02-10T06:05:23.114Z,99.99
2019-02-10T06:06:23.092Z,99.99
2019-02-10T06:07:23.067Z,99.99
2019-02-10T06:08:23.040Z,99.99
2019-02-10T06:09:23.063Z,99.99
2019-02-10T06:10:43.995Z,99.99
2019-02-10T06:11:22.965Z,99.99
2019-02-10T06:12:22.940Z,99.99
2019-02-10T06:13:22.914Z,99.99
2019-02-10T06:14:22.892Z,99.99
2019-02-10T06:15:22.864Z,99.99
2019-02-10T06:16:43.842Z,99.99
2019-02-10T06:17:22.821Z,99.99
2019-02-10T06:18:22.791Z,99.99
2019-02-10T06:19:22.763Z,99.99
2019-02-10T06:20:22.741Z,99.99
2019-02-10T06:21:22.714Z,99.99
2019-02-10T06:22:43.690Z,99.99
2019-02-10T06:23:22.664Z,99.99
2019-02-10T06:24:22.639Z,99.99
2019-02-10T06:25:22.615Z,99.99
2019-02-10T06:26:22.590Z,99.99
2019-02-10T06:27:22.566Z,99.99
2019-02-10T06:28:43.546Z,99.99
2019-02-10T06:29:22.521Z,99.99
2019-02-10T06:30:22.491Z,99.99
2019-02-10T06:31:22.465Z,99.99
2019-02-10T06:32:22.440Z,99.99
2019-02-10T06:33:22.416Z,99.99
2019-02-10T06:34:43.389Z,99.99
2019-02-10T06:35:22.364Z,99.99
2019-02-10T06:36:22.341Z,99.99
2019-02-10T06:37:22.314Z,99.99
2019-02-10T06:38:22.946Z,99.99
2019-02-10T06:39:22.263Z,99.99
2019-02-10T06:40:43.243Z,99.99
2019-02-10T06:41:22.217Z,99.99
2019-02-10T06:42:22.188Z,99.99
2019-02-10T06:43:22.160Z,99.99
2019-02-10T06:44:22.136Z,99.99
2019-02-10T06:45:22.133Z,99.99
2019-02-10T06:46:43.085Z,99.99
2019-02-10T06:47:22.060Z,99.99
2019-02-10T06:48:22.034Z,99.99
2019-02-10T06:49:22.009Z,99.99
2019-02-10T06:50:21.989Z,99.99
2019-02-10T06:51:21.959Z,99.99
2019-02-10T06:52:42.938Z,99.99
2019-02-10T06:53:21.910Z,99.99
2019-02-10T06:54:21.886Z,99.99
2019-02-10T06:55:21.858Z,99.99
2019-02-10T06:56:21.833Z,99.99
2019-02-10T06:57:21.807Z,99.99
2019-02-10T06:58:42.782Z,99.99
2019-02-10T06:59:21.755Z,99.99
2019-02-10T07:00:21.731Z,99.99
2019-02-10T07:01:21.706Z,99.99
2019-02-10T07:02:21.685Z,99.99
2019-02-10T07:03:21.654Z,99.99
2019-02-10T07:04:42.630Z,99.99
2019-02-10T07:05:21.603Z,99.99
2019-02-10T07:06:21.580Z,99.99
2019-02-10T07:07:21.556Z,99.99
2019-02-10T07:08:21.529Z,99.99
2019-02-10T07:09:21.504Z,99.99
2019-02-10T07:10:42.477Z,99.99
2019-02-10T07:11:21.455Z,99.99
2019-02-10T07:12:21.425Z,99.99
2019-02-10T07:13:21.402Z,99.99
2019-02-10T07:14:21.379Z,99.99
2019-02-10T07:15:21.350Z,99.99
2019-02-10T07:16:42.327Z,99.99
2019-02-10T07:17:21.302Z,99.99
2019-02-10T07:18:21.278Z,99.99
2019-02-10T07:19:21.253Z,99.99
2019-02-10T07:20:21.228Z,99.99
2019-02-10T07:21:21.202Z,99.99
2019-02-10T07:22:42.175Z,99.99
2019-02-10T07:23:21.150Z,99.99
2019-02-10T07:24:21.123Z,99.99
2019-02-10T07:25:21.100Z,99.99
2019-02-10T07:26:21.080Z,99.99
2019-02-10T07:27:21.053Z,99.99
2019-02-10T07:28:42.163Z,99.99
2019-02-10T07:29:21.000Z,99.99
2019-02-10T07:30:20.975Z,99.99
2019-02-10T07:31:20.952Z,99.99
2019-02-10T07:32:20.926Z,99.99
2019-02-10T07:33:20.936Z,99.99
2019-02-10T07:34:48.077Z,99.99
2019-02-10T07:35:20.865Z,99.99
2019-02-10T07:36:20.824Z,99.99
2019-02-10T07:37:20.800Z,99.99
2019-02-10T07:38:20.773Z,99.99
2019-02-10T07:39:20.749Z,99.99
2019-02-10T07:40:41.757Z,99.99
2019-02-10T07:41:20.697Z,99.99
2019-02-10T07:42:20.674Z,99.99
2019-02-10T07:43:20.696Z,99.99
2019-02-10T07:44:20.656Z,99.99
2019-02-10T07:45:20.609Z,99.99
2019-02-10T07:46:41.577Z,99.99
2019-02-10T07:47:20.640Z,99.99
2019-02-10T07:48:20.529Z,99.99
2019-02-10T07:49:20.499Z,99.99
2019-02-10T07:50:20.474Z,99.99
2019-02-10T07:51:20.506Z,99.99
2019-02-10T07:52:41.423Z,99.99
2019-02-10T07:53:20.398Z,99.99
2019-02-10T07:54:20.374Z,99.99
2019-02-10T07:55:20.349Z,99.99
2019-02-10T07:56:20.322Z,99.99
2019-02-10T07:57:20.300Z,99.99
2019-02-10T07:58:41.385Z,99.99
2019-02-10T07:59:20.253Z,99.99
2019-02-10T08:00:20.226Z,99.99
2019-02-10T08:01:20.199Z,99.99
2019-02-10T08:02:20.174Z,99.99
2019-02-10T08:03:20.149Z,99.99
2019-02-10T08:04:41.122Z,99.99
2019-02-10T08:05:20.100Z,99.99
2019-02-10T08:06:20.075Z,99.99
2019-02-10T08:07:20.064Z,99.99
2019-02-10T08:08:20.025Z,99.99
2019-02-10T08:09:20.001Z,99.99
2019-02-10T08:10:41.005Z,99.99
2019-02-10T08:11:19.954Z,99.99
2019-02-10T08:12:19.927Z,99.99
2019-02-10T08:13:19.903Z,99.99
2019-02-10T08:14:19.878Z,99.99
2019-02-10T08:15:19.850Z,99.99
2019-02-10T08:16:40.826Z,99.99
2019-02-10T08:17:19.801Z,99.99
2019-02-10T08:18:19.813Z,99.99
2019-02-10T08:19:19.751Z,99.99
2019-02-10T08:20:19.746Z,99.99
2019-02-10T08:21:19.737Z,99.99
2019-02-10T08:22:40.679Z,99.99
2019-02-10T08:23:20.611Z,99.99
2019-02-10T08:24:19.633Z,99.99
2019-02-10T08:25:19.605Z,99.99
2019-02-10T08:26:19.581Z,99.99
2019-02-10T08:27:19.553Z,99.99
2019-02-10T08:28:40.571Z,99.99
2019-02-10T08:29:19.508Z,99.99
2019-02-10T08:30:19.482Z,99.99
2019-02-10T08:31:19.455Z,99.99
2019-02-10T08:32:19.429Z,99.99
2019-02-10T08:33:19.406Z,99.99
2019-02-10T08:34:40.380Z,99.99
2019-02-10T08:35:19.355Z,99.99
2019-02-10T08:36:19.330Z,99.99
2019-02-10T08:37:19.305Z,99.99
2019-02-10T08:38:19.280Z,99.99
2019-02-10T08:39:19.255Z,99.99
2019-02-10T08:40:40.334Z,99.99
2019-02-10T08:41:19.206Z,99.99
2019-02-10T08:42:19.306Z,99.99
2019-02-10T08:43:19.155Z,99.99
2019-02-10T08:44:19.130Z,99.99
2019-02-10T08:45:19.107Z,99.99
2019-02-10T08:46:40.080Z,99.99
2019-02-10T08:47:19.092Z,99.99
2019-02-10T08:48:19.088Z,99.99
2019-02-10T08:49:19.005Z,99.99
2019-02-10T08:50:18.981Z,99.99
2019-02-10T08:51:18.955Z,99.99
2019-02-10T08:52:39.930Z,99.99
2019-02-10T08:53:18.906Z,99.99
2019-02-10T08:54:18.883Z,99.99
2019-02-10T08:55:18.854Z,99.99
2019-02-10T08:56:18.859Z,99.99
2019-02-10T08:57:18.810Z,99.99
2019-02-10T08:58:39.841Z,99.99
2019-02-10T08:59:18.756Z,99.99
2019-02-10T09:00:18.730Z,99.99
2019-02-10T09:01:18.751Z,99.99
2019-02-10T09:02:18.681Z,99.99
2019-02-10T09:03:19.814Z,99.99
2019-02-10T09:04:39.628Z,99.99
2019-02-10T09:05:18.608Z,99.99
2019-02-10T09:06:18.593Z,99.99
2019-02-10T09:07:18.582Z,99.99
2019-02-10T09:08:18.551Z,99.99
2019-02-10T09:09:18.504Z,99.99
2019-02-10T09:10:39.483Z,99.99
2019-02-10T09:11:18.452Z,99.99
2019-02-10T09:12:18.453Z,99.99
2019-02-10T09:13:18.505Z,99.99
2019-02-10T09:14:18.399Z,99.99
2019-02-10T09:15:18.372Z,99.99
2019-02-10T09:16:39.329Z,99.99
2019-02-10T09:17:18.302Z,99.99
2019-02-10T09:18:18.281Z,99.99
2019-02-10T09:19:18.251Z,99.99
2019-02-10T09:20:18.227Z,99.99
2019-02-10T09:21:18.201Z,99.99
2019-02-10T09:22:39.183Z,99.99
2019-02-10T09:23:18.167Z,99.99
2019-02-10T09:24:18.127Z,99.99
2019-02-10T09:25:18.102Z,99.99
2019-02-10T09:26:18.125Z,99.99
2019-02-10T09:27:18.051Z,99.99
2019-02-10T09:28:39.118Z,99.99
2019-02-10T09:29:18.005Z,99.99
2019-02-10T09:30:17.980Z,99.99
2019-02-10T09:31:17.951Z,99.99
2019-02-10T09:32:17.928Z,99.99
2019-02-10T09:33:17.902Z,99.99
2019-02-10T09:34:38.880Z,99.99
2019-02-10T09:35:17.953Z,99.99
2019-02-10T09:36:17.828Z,99.99
2019-02-10T09:37:17.807Z,99.99
2019-02-10T09:38:17.786Z,99.99
2019-02-10T09:39:17.753Z,99.99
2019-02-10T09:40:38.727Z,99.99
2019-02-10T09:41:17.708Z,99.99
2019-02-10T09:42:17.678Z,99.99
2019-02-10T09:43:17.663Z,99.99
2019-02-10T09:44:17.660Z,99.99
2019-02-10T09:45:17.606Z,99.99
2019-02-10T09:46:38.584Z,99.99
2019-02-10T09:47:17.553Z,99.99
2019-02-10T09:48:17.580Z,99.99
2019-02-10T09:49:17.535Z,99.99
2019-02-10T09:50:17.498Z,99.99
2019-02-10T09:51:17.455Z,99.99
2019-02-10T09:52:38.432Z,99.99
2019-02-10T09:53:17.416Z,99.99
2019-02-10T09:54:17.381Z,99.99
2019-02-10T09:55:17.360Z,99.99
2019-02-10T09:56:17.331Z,99.99
2019-02-10T09:57:17.306Z,99.99
2019-02-10T09:58:38.305Z,99.99
2019-02-10T09:59:17.295Z,99.99
2019-02-10T10:00:17.256Z,99.93
2019-02-10T10:01:17.207Z,99.99
2019-02-10T10:02:17.183Z,99.99
2019-02-10T10:03:17.158Z,99.99
2019-02-10T10:04:38.136Z,99.99
2019-02-10T10:05:17.113Z,99.99
2019-02-10T10:06:17.082Z,99.99
2019-02-10T10:07:17.060Z,99.99
2019-02-10T10:08:17.035Z,99.99
2019-02-10T10:09:19.479Z,99.99
2019-02-10T10:10:38.011Z,99.99
2019-02-10T10:11:16.973Z,99.99
2019-02-10T10:12:17.087Z,99.99
2019-02-10T10:13:16.910Z,99.99
2019-02-10T10:14:16.890Z,99.99
2019-02-10T10:15:16.862Z,99.99
2019-02-10T10:16:37.838Z,99.99
2019-02-10T10:17:16.814Z,99.99
2019-02-10T10:18:16.790Z,99.99
2019-02-10T10:19:16.767Z,99.99
2019-02-10T10:20:16.741Z,99.99
2019-02-10T10:21:16.714Z,99.99
2019-02-10T10:22:37.739Z,99.74
2019-02-10T10:23:16.664Z,99.84
2019-02-10T10:24:16.642Z,99.99
2019-02-10T10:25:16.619Z,99.99
2019-02-10T10:26:16.592Z,99.99
2019-02-10T10:27:16.570Z,99.84
2019-02-10T10:28:37.574Z,99.99
2019-02-10T10:29:16.517Z,99.99
2019-02-10T10:30:16.494Z,99.99
2019-02-10T10:31:16.469Z,99.99
2019-02-10T10:32:16.444Z,99.99
2019-02-10T10:33:16.429Z,99.99
2019-02-10T10:34:37.413Z,99.99
2019-02-10T10:35:16.370Z,99.99
2019-02-10T10:36:16.345Z,99.99
2019-02-10T10:37:16.330Z,99.99
2019-02-10T10:38:16.298Z,99.99
2019-02-10T10:39:16.274Z,99.99
2019-02-10T10:40:37.246Z,99.99
2019-02-10T10:41:16.224Z,99.99
2019-02-10T10:42:16.197Z,99.99
2019-02-10T10:43:16.208Z,99.99
2019-02-10T10:44:16.148Z,99.99
2019-02-10T10:45:16.143Z,99.99
2019-02-10T10:46:37.231Z,99.99
2019-02-10T10:47:16.079Z,99.99
2019-02-10T10:48:16.056Z,99.99
2019-02-10T10:49:16.028Z,99.99
2019-02-10T10:50:16.001Z,99.99
2019-02-10T10:51:15.976Z,99.99
2019-02-10T10:52:36.953Z,99.99
2019-02-10T10:53:15.928Z,99.99
2019-02-10T10:54:15.901Z,99.99
2019-02-10T10:55:15.882Z,99.99
2019-02-10T10:56:16.106Z,99.99
2019-02-10T10:57:16.055Z,99.99
2019-02-10T10:58:36.806Z,99.99
2019-02-10T10:59:15.783Z,99.99
2019-02-10T11:00:15.760Z,99.99
2019-02-10T11:01:15.749Z,99.99
2019-02-10T11:02:15.705Z,99.99
2019-02-10T11:03:17.257Z,99.99
2019-02-10T11:04:36.658Z,99.99
2019-02-10T11:05:15.634Z,99.99
2019-02-10T11:06:15.626Z,99.99
2019-02-10T11:07:15.583Z,99.99
2019-02-10T11:08:15.558Z,99.99
2019-02-10T11:09:15.534Z,99.99
2019-02-10T11:10:36.513Z,99.99
2019-02-10T11:11:15.485Z,99.99
2019-02-10T11:12:15.462Z,99.99
2019-02-10T11:13:15.441Z,99.98
2019-02-10T11:14:15.412Z,99.99
2019-02-10T11:15:15.388Z,99.99
2019-02-10T11:16:36.362Z,99.99
2019-02-10T11:17:15.338Z,99.69
2019-02-10T11:18:15.314Z,99.99
2019-02-10T11:19:15.289Z,99.79
2019-02-10T11:20:15.265Z,99.99
2019-02-10T11:21:15.246Z,99.99
2019-02-10T11:22:36.298Z,99.98
2019-02-10T11:23:15.195Z,99.99
2019-02-10T11:24:15.168Z,99.32
2019-02-10T11:25:15.144Z,99.99
2019-02-10T11:26:15.120Z,99.36
2019-02-10T11:27:15.093Z,99.99
2019-02-10T11:28:36.135Z,99.84
2019-02-10T11:29:15.047Z,99.65
2019-02-10T11:30:15.021Z,99.27
2019-02-10T11:31:15.031Z,99.84
2019-02-10T11:32:14.971Z,99.84
2019-02-10T11:33:14.947Z,99.93
2019-02-10T11:34:35.964Z,99.36
2019-02-10T11:35:14.899Z,99.65
2019-02-10T11:36:14.876Z,99.84
2019-02-10T11:37:14.852Z,99.74
2019-02-10T11:38:14.826Z,99.74
2019-02-10T11:39:14.801Z,99.99
2019-02-10T11:40:35.779Z,99.27
2019-02-10T11:41:14.753Z,99.46
2019-02-10T11:42:14.729Z,99.99
2019-02-10T11:43:14.704Z,99.84
2019-02-10T11:44:14.679Z,99.93
2019-02-10T11:45:14.654Z,99.84
2019-02-10T11:46:35.631Z,99.74
2019-02-10T11:47:14.606Z,99.36
2019-02-10T11:48:14.582Z,99.84
2019-02-10T11:49:14.559Z,99.74
2019-02-10T11:50:14.533Z,99.46
2019-02-10T11:51:14.508Z,99.46
2019-02-10T11:52:35.485Z,99.27
2019-02-10T11:53:14.461Z,99.27
2019-02-10T11:54:14.447Z,99.17
2019-02-10T11:55:14.412Z,99.17
2019-02-10T11:56:14.387Z,99.84
2019-02-10T11:57:14.363Z,98.88
2019-02-10T11:58:35.411Z,99.65
2019-02-10T11:59:14.311Z,99.84
2019-02-10T12:00:14.289Z,99.84
2019-02-10T12:01:14.265Z,99.93
2019-02-10T12:02:14.243Z,99.84
2019-02-10T12:03:14.228Z,99.99
2019-02-10T12:04:35.192Z,99.84
2019-02-10T12:05:14.168Z,99.55
2019-02-10T12:06:14.144Z,99.69
2019-02-10T12:07:14.119Z,99.84
2019-02-10T12:08:14.098Z,99.74
2019-02-10T12:09:14.078Z,99.74
2019-02-10T12:10:35.052Z,99.84
2019-02-10T12:11:14.052Z,99.51
2019-02-10T12:12:14.035Z,99.79
2019-02-10T12:13:13.977Z,99.89
2019-02-10T12:14:13.951Z,99.69
2019-02-10T12:15:13.926Z,99.69
2019-02-10T12:16:34.901Z,99.69
2019-02-10T12:17:13.879Z,99.79
2019-02-10T12:18:13.873Z,99.41
2019-02-10T12:19:13.830Z,99.51
2019-02-10T12:20:13.826Z,99.60
2019-02-10T12:21:13.797Z,99.32
2019-02-10T12:22:34.758Z,99.89
2019-02-10T12:23:13.735Z,99.79
2019-02-10T12:24:13.710Z,99.32
2019-02-10T12:25:13.685Z,99.32
2019-02-10T12:26:13.661Z,99.69
2019-02-10T12:27:13.636Z,99.27
2019-02-10T12:28:34.689Z,99.79
2019-02-10T12:29:13.590Z,99.99
2019-02-10T12:30:13.565Z,99.55
2019-02-10T12:31:13.541Z,99.60
2019-02-10T12:32:13.517Z,99.51
2019-02-10T12:33:13.495Z,99.99
2019-02-10T12:34:34.471Z,99.99
2019-02-10T12:35:13.447Z,99.99
2019-02-10T12:36:13.423Z,99.74
2019-02-10T12:37:13.405Z,99.79
2019-02-10T12:38:13.379Z,99.99
2019-02-10T12:39:13.402Z,99.99
2019-02-10T12:40:34.331Z,99.99
2019-02-10T12:41:13.306Z,99.99
2019-02-10T12:42:13.278Z,99.99
2019-02-10T12:43:13.260Z,99.99
2019-02-10T12:44:13.229Z,99.99
2019-02-10T12:45:13.206Z,99.99
2019-02-10T12:46:34.252Z,99.99
2019-02-10T12:47:13.371Z,99.99
2019-02-10T12:48:13.177Z,99.99
2019-02-10T12:49:13.273Z,99.99
2019-02-10T12:50:13.083Z,99.99
2019-02-10T12:51:13.216Z,99.99
2019-02-10T12:52:34.170Z,99.99